Ryoei Maru — JL6703 — position and weather

sailwx.info

Track history (hours):
 
Tides and Currents Weather Stations Pressure Air Temp Water Temp Dewpoint Dewpoint Depression Visibility Wind Speed Wind Dir Waves Ship Positions

Ryoei Maru

Last reported at 2017-Jan-20 09:33 UTC. Time now 2017-Jan-22 16:19 UTC.
Position N 33°58' E 134°60'.

Length 95 m; draft 5 m.

Type: Cargo ship. MMSI: 431501749.

Date/timePositionNaut miles runAvg speedWind from/ knotsBaromVisibWave heightAir tempDewpointWater temp
2017-Jan-20 09:33N 33°58' E 134°60'1313.1
2017-Jan-20 08:33N 34°11' E 134°59'1312.5
2017-Jan-20 07:33N 34°23' E 135°01'1111.2
2017-Jan-20 06:33N 34°30' E 135°12'1110.8
2017-Jan-20 05:33N 34°39' E 135°20'0 0.0
2017-Jan-20 03:29N 34°39' E 135°20'0 0.0
2017-Jan-20 02:29N 34°39' E 135°20'0 0.0
2017-Jan-20 01:29N 34°39' E 135°20'0 0.0
2017-Jan-20 00:23N 34°39' E 135°20'0 0.0
2017-Jan-19 23:23N 34°39' E 135°20'0 0.1
2017-Jan-19 22:29N 34°39' E 135°20'0 0.0
2017-Jan-19 21:23N 34°39' E 135°20'0 0.0
2017-Jan-19 20:17N 34°39' E 135°20'0 0.0
2017-Jan-19 19:29N 34°39' E 135°20'0 0.0
2017-Jan-19 18:05N 34°39' E 135°20'0 0.0
2017-Jan-19 17:29N 34°39' E 135°20'0 0.0
2017-Jan-19 16:17N 34°39' E 135°20'0 0.0
2017-Jan-19 15:29N 34°39' E 135°20'0 0.0
2017-Jan-19 14:29N 34°39' E 135°20'0 0.0
2017-Jan-19 13:29N 34°39' E 135°20'0 0.0
2017-Jan-19 12:17N 34°39' E 135°20'1 1.6
2017-Jan-19 11:33N 34°37' E 135°20'5 0.5
2017-Jan-19 01:29N 34°37' E 135°26'0 0.0
2017-Jan-18 22:23N 34°37' E 135°26'5 6.5
2017-Jan-18 21:33N 34°36' E 135°19'1 0.6
2017-Jan-18 20:28N 34°35' E 135°19'0 0.0
2017-Jan-18 19:16N 34°35' E 135°19'0 0.1
2017-Jan-18 18:28N 34°35' E 135°19'0 0.0
2017-Jan-18 17:28N 34°35' E 135°19'0 0.0
2017-Jan-18 16:22N 34°35' E 135°19'4 4.5
2017-Jan-18 15:33N 34°33' E 135°15'1412.6
2017-Jan-18 14:28N 34°23' E 135°04'1111.8
2017-Jan-18 13:33N 34°12' E 134°60'234 9.6
2017-Jan-17 13:15N 35°03' E 139°37'912.7
2017-Jan-17 12:33N 35°10' E 139°44'1211.8
2017-Jan-17 11:33N 35°21' E 139°42'1211.6
2017-Jan-17 10:33N 35°30' E 139°51'8 7.8
2017-Jan-17 09:33N 35°37' E 139°47'0 0.0
2017-Jan-17 04:28N 35°37' E 139°47'0 0.0
2017-Jan-17 00:30N 35°37' E 139°47'7 7.8
2017-Jan-16 23:33N 35°31' E 139°52'1211.7
2017-Jan-16 22:33N 35°21' E 139°45'1211.7
2017-Jan-16 21:33N 35°09' E 139°47'  
2017-Jan-12 16:11N 33°58' E 134°60'913.7
2017-Jan-12 15:33N 34°06' E 134°59'1513.7
2017-Jan-12 14:27N 34°21' E 134°60'1112.5
2017-Jan-12 13:33N 34°29' E 135°10'1212.0
2017-Jan-12 12:33N 34°37' E 135°21'4 3.8
2017-Jan-12 11:30N 34°37' E 135°26'0 0.0
2017-Jan-12 10:24N 34°37' E 135°26'0 0.0
2017-Jan-12 09:24N 34°37' E 135°26'0 0.0
2017-Jan-12 08:24N 34°37' E 135°26'0 0.0
2017-Jan-12 07:24N 34°37' E 135°26'0 0.0
2017-Jan-12 06:18N 34°37' E 135°26'0 0.0
2017-Jan-12 05:30N 34°37' E 135°26'0 0.0
2017-Jan-12 04:30N 34°37' E 135°26'0 0.0
2017-Jan-12 03:30N 34°37' E 135°26'0 0.0
2017-Jan-12 02:30N 34°37' E 135°26'0 0.0
2017-Jan-12 01:30N 34°37' E 135°26'0 0.0
2017-Jan-12 00:18N 34°37' E 135°26'0 0.0
2017-Jan-11 23:33N 34°37' E 135°26'8 8.4
2017-Jan-11 22:33N 34°33' E 135°16'1413.1
2017-Jan-11 21:31N 34°23' E 135°05'1212.7
2017-Jan-11 20:33N 34°12' E 134°60'1312.1
2017-Jan-11 19:30N 33°59' E 135°01'  
Track history (hours):
 
Tides and Currents Weather Stations Pressure Air Temp Water Temp Dewpoint Dewpoint Depression Visibility Wind Speed Wind Dir Waves Ship Positions

Ryoei Maru

Last reported at 2017-Jan-20 09:33 UTC. Time now 2017-Jan-22 16:19 UTC.
Position N 33°58' E 134°60'.

Length 95 m; draft 5 m.

Type: Cargo ship. MMSI: 431501749.

Date/timePositionNaut miles runAvg speedWind from/ knotsBaromVisibWave heightAir tempDewpointWater temp
2017-Jan-20 09:33N 33°58' E 134°60'1313.1
2017-Jan-20 08:33N 34°11' E 134°59'1312.5
2017-Jan-20 07:33N 34°23' E 135°01'1111.2
2017-Jan-20 06:33N 34°30' E 135°12'1110.8
2017-Jan-20 05:33N 34°39' E 135°20'0 0.0
2017-Jan-20 03:29N 34°39' E 135°20'0 0.0
2017-Jan-20 02:29N 34°39' E 135°20'0 0.0
2017-Jan-20 01:29N 34°39' E 135°20'0 0.0
2017-Jan-20 00:23N 34°39' E 135°20'0 0.0
2017-Jan-19 23:23N 34°39' E 135°20'0 0.1
2017-Jan-19 22:29N 34°39' E 135°20'0 0.0
2017-Jan-19 21:23N 34°39' E 135°20'0 0.0
2017-Jan-19 20:17N 34°39' E 135°20'0 0.0
2017-Jan-19 19:29N 34°39' E 135°20'0 0.0
2017-Jan-19 18:05N 34°39' E 135°20'0 0.0
2017-Jan-19 17:29N 34°39' E 135°20'0 0.0
2017-Jan-19 16:17N 34°39' E 135°20'0 0.0
2017-Jan-19 15:29N 34°39' E 135°20'0 0.0
2017-Jan-19 14:29N 34°39' E 135°20'0 0.0
2017-Jan-19 13:29N 34°39' E 135°20'0 0.0
2017-Jan-19 12:17N 34°39' E 135°20'1 1.6
2017-Jan-19 11:33N 34°37' E 135°20'5 0.5
2017-Jan-19 01:29N 34°37' E 135°26'0 0.0
2017-Jan-18 22:23N 34°37' E 135°26'5 6.5
2017-Jan-18 21:33N 34°36' E 135°19'1 0.6
2017-Jan-18 20:28N 34°35' E 135°19'0 0.0
2017-Jan-18 19:16N 34°35' E 135°19'0 0.1
2017-Jan-18 18:28N 34°35' E 135°19'0 0.0
2017-Jan-18 17:28N 34°35' E 135°19'0 0.0
2017-Jan-18 16:22N 34°35' E 135°19'4 4.5
2017-Jan-18 15:33N 34°33' E 135°15'1412.6
2017-Jan-18 14:28N 34°23' E 135°04'1111.8
2017-Jan-18 13:33N 34°12' E 134°60'234 9.6
2017-Jan-17 13:15N 35°03' E 139°37'912.7
2017-Jan-17 12:33N 35°10' E 139°44'1211.8
2017-Jan-17 11:33N 35°21' E 139°42'1211.6
2017-Jan-17 10:33N 35°30' E 139°51'8 7.8
2017-Jan-17 09:33N 35°37' E 139°47'0 0.0
2017-Jan-17 04:28N 35°37' E 139°47'0 0.0
2017-Jan-17 00:30N 35°37' E 139°47'7 7.8
2017-Jan-16 23:33N 35°31' E 139°52'1211.7
2017-Jan-16 22:33N 35°21' E 139°45'1211.7
2017-Jan-16 21:33N 35°09' E 139°47'  
2017-Jan-12 16:11N 33°58' E 134°60'913.7
2017-Jan-12 15:33N 34°06' E 134°59'1513.7
2017-Jan-12 14:27N 34°21' E 134°60'1112.5
2017-Jan-12 13:33N 34°29' E 135°10'1212.0
2017-Jan-12 12:33N 34°37' E 135°21'4 3.8
2017-Jan-12 11:30N 34°37' E 135°26'0 0.0
2017-Jan-12 10:24N 34°37' E 135°26'0 0.0
2017-Jan-12 09:24N 34°37' E 135°26'0 0.0
2017-Jan-12 08:24N 34°37' E 135°26'0 0.0
2017-Jan-12 07:24N 34°37' E 135°26'0 0.0
2017-Jan-12 06:18N 34°37' E 135°26'0 0.0
2017-Jan-12 05:30N 34°37' E 135°26'0 0.0
2017-Jan-12 04:30N 34°37' E 135°26'0 0.0
2017-Jan-12 03:30N 34°37' E 135°26'0 0.0
2017-Jan-12 02:30N 34°37' E 135°26'0 0.0
2017-Jan-12 01:30N 34°37' E 135°26'0 0.0
2017-Jan-12 00:18N 34°37' E 135°26'0 0.0
2017-Jan-11 23:33N 34°37' E 135°26'8 8.4
2017-Jan-11 22:33N 34°33' E 135°16'1413.1
2017-Jan-11 21:31N 34°23' E 135°05'1212.7
2017-Jan-11 20:33N 34°12' E 134°60'1312.1
2017-Jan-11 19:30N 33°59' E 135°01'  

Dump ship's entire track history